Time;durP1;ratioP1;P1;durP2;ratioP2;P2;SDS_P1;SDS_P2;PMS_P1;PMS_P2;Temp;Humidity;BMP_temperature;BMP_pressure;BME280_temperature;BME280_humidity;BME280_pressure;Samples;Min_cycle;Max_cycle;Signal;HPM_P1;HPM_P2
2021/04/27 00:00:04;;;;;;;35.45;14.65;;;;;;;1.83;57.37;97076.68;1827821;77;25787;-80
2021/04/27 00:02:33;;;;;;;35.70;15.58;;;;;;;1.73;57.25;97079.00;1842745;77;25749;-80
2021/04/27 00:05:02;;;;;;;33.53;14.18;;;;;;;1.65;57.34;97065.70;1842658;77;26626;-80
2021/04/27 00:07:29;;;;;;;26.68;10.35;;;;;;;1.51;57.49;97068.16;1842681;77;25772;-80
2021/04/27 00:09:57;;;;;;;23.75;12.07;;;;;;;1.48;57.74;97069.31;1830482;77;28536;-80
2021/04/27 00:12:24;;;;;;;23.42;9.55;;;;;;;1.42;57.88;97072.14;1841564;77;25864;-80
2021/04/27 00:14:52;;;;;;;34.73;12.98;;;;;;;1.35;57.70;97065.78;1818180;77;25817;-80
2021/04/27 00:17:19;;;;;;;42.73;15.20;;;;;;;1.39;57.65;97068.96;1841648;77;25669;-80
2021/04/27 00:19:46;;;;;;;33.02;12.33;;;;;;;1.41;57.54;97059.83;1818081;77;25748;-80
2021/04/27 00:22:13;;;;;;;28.75;11.53;;;;;;;1.41;57.49;97054.52;1837314;77;27533;-80
2021/04/27 00:24:41;;;;;;;27.25;11.50;;;;;;;1.43;57.42;97057.02;1851491;77;25730;-80
2021/04/27 00:27:08;;;;;;;19.98;10.90;;;;;;;1.44;57.50;97053.36;1851527;77;25781;-80
2021/04/27 00:29:36;;;;;;;39.25;16.10;;;;;;;1.37;57.67;97059.81;1848130;77;25706;-80
2021/04/27 00:32:04;;;;;;;49.55;22.30;;;;;;;1.31;57.84;97055.66;1831971;77;25807;-80
2021/04/27 00:34:31;;;;;;;53.75;21.50;;;;;;;1.25;58.00;97057.13;1851529;77;27460;-80
2021/04/27 00:36:59;;;;;;;54.53;21.00;;;;;;;1.20;57.96;97051.97;1851483;77;26226;-80
2021/04/27 00:39:26;;;;;;;44.33;18.48;;;;;;;1.16;57.89;97057.27;1851600;77;25713;-80
2021/04/27 00:41:53;;;;;;;45.12;18.82;;;;;;;1.09;58.14;97057.89;1827939;77;25760;-80
2021/04/27 00:44:21;;;;;;;42.27;18.23;;;;;;;1.02;58.23;97057.38;1851697;77;25319;-80
2021/04/27 00:46:48;;;;;;;39.88;17.70;;;;;;;0.98;58.23;97053.36;1851441;77;27528;-80
2021/04/27 00:49:15;;;;;;;35.98;15.90;;;;;;;0.90;58.43;97043.55;1834681;77;25741;-80
2021/04/27 00:51:43;;;;;;;23.73;11.00;;;;;;;0.78;58.35;97044.82;1841522;77;25682;-80
2021/04/27 00:54:10;;;;;;;31.25;13.00;;;;;;;0.74;58.45;97043.46;1832072;77;25732;-80
2021/04/27 00:56:37;;;;;;;29.75;13.03;;;;;;;0.76;58.53;97048.12;1828023;77;25735;-80
2021/04/27 00:59:05;;;;;;;28.07;12.05;;;;;;;0.76;58.66;97053.44;1851692;77;27491;-80
2021/04/27 01:01:34;;;;;;;24.15;12.20;;;;;;;0.70;58.63;97052.27;1851323;77;25722;-80
2021/04/27 01:04:01;;;;;;;26.60;11.40;;;;;;;0.67;58.55;97053.07;1836349;77;25810;-80
2021/04/27 01:06:28;;;;;;;26.55;10.25;;;;;;;0.64;58.59;97043.59;1818048;77;25746;-80
2021/04/27 01:09:16;;;;;;;21.25;9.78;;;;;;;0.62;58.72;97050.05;1813742;77;25704;-80
2021/04/27 01:11:58;;;;;;;25.23;10.50;;;;;;;0.59;58.83;97048.56;1812127;77;28526;-80
2021/04/27 01:14:36;;;;;;;29.23;11.53;;;;;;;0.56;59.15;97047.55;1820220;77;25703;-80
2021/04/27 01:17:13;;;;;;;27.67;12.23;;;;;;;0.47;59.19;97043.67;1825354;77;25826;-80
2021/04/27 01:19:45;;;;;;;22.75;9.63;;;;;;;0.44;59.37;97046.64;1808455;77;26408;-80
2021/04/27 01:22:20;;;;;;;26.70;10.75;;;;;;;0.43;59.43;97046.30;1822127;77;26403;-80
2021/04/27 01:24:56;;;;;;;26.97;11.43;;;;;;;0.38;59.34;97047.25;1828027;77;26694;-80
2021/04/27 01:27:24;;;;;;;25.43;10.93;;;;;;;0.35;59.16;97045.27;1820672;77;26040;-80
2021/04/27 01:29:52;;;;;;;26.55;10.70;;;;;;;0.34;59.43;97048.91;1819453;77;25796;-81
2021/04/27 01:32:21;;;;;;;27.35;11.00;;;;;;;0.32;59.31;97042.92;1842773;77;25522;-80
2021/04/27 01:34:49;;;;;;;26.87;10.93;;;;;;;0.34;59.51;97039.62;1842750;77;25326;-81
2021/04/27 01:37:16;;;;;;;23.35;10.50;;;;;;;0.29;59.57;97043.72;1842726;77;27492;-81
2021/04/27 01:39:43;;;;;;;23.00;10.25;;;;;;;0.22;59.78;97040.87;1836078;77;26361;-81
2021/04/27 01:42:11;;;;;;;20.60;9.95;;;;;;;0.23;59.86;97039.88;1796039;77;25778;-81
2021/04/27 01:44:42;;;;;;;25.55;10.23;;;;;;;0.25;59.94;97042.35;1794047;77;26403;-81
2021/04/27 01:47:11;;;;;;;20.32;9.85;;;;;;;0.28;59.88;97050.84;1820711;77;25745;-80
2021/04/27 01:49:46;;;;;;;22.82;10.10;;;;;;;0.29;59.95;97055.66;1842724;77;27491;-80
2021/04/27 01:52:13;;;;;;;21.82;10.23;;;;;;;0.28;60.06;97049.52;1832262;77;26157;-81
2021/04/27 01:54:41;;;;;;;22.93;10.10;;;;;;;0.29;60.22;97052.52;1830550;77;25709;-80
2021/04/27 01:57:08;;;;;;;25.60;10.88;;;;;;;0.30;60.45;97048.88;1834824;77;25773;-80
2021/04/27 01:59:35;;;;;;;22.05;10.82;;;;;;;0.29;60.36;97053.84;1827961;77;25766;-80
2021/04/27 02:02:03;;;;;;;22.58;10.23;;;;;;;0.30;60.30;97045.39;1842718;77;28368;-80
2021/04/27 02:04:30;;;;;;;26.48;10.50;;;;;;;0.33;60.38;97047.24;1842591;77;26236;-81
2021/04/27 02:06:58;;;;;;;27.50;11.80;;;;;;;0.34;60.48;97050.73;1799116;77;25695;-81
2021/04/27 02:09:27;;;;;;;23.75;10.63;;;;;;;0.36;60.54;97046.91;1809171;77;26596;-80
2021/04/27 02:11:56;;;;;;;25.85;11.75;;;;;;;0.38;60.64;97043.27;1842834;77;25746;-80
2021/04/27 02:14:30;;;;;;;30.77;11.63;;;;;;;0.39;60.68;97039.62;1842802;77;27492;-80
2021/04/27 02:17:27;;;;;;;28.55;11.90;;;;;;;0.40;60.67;97042.13;1842712;77;25721;-81
2021/04/27 02:19:56;;;;;;;29.98;14.58;;;;;;;0.42;60.74;97034.01;1755464;79;26408;-81
2021/04/27 02:22:28;;;;;;;40.55;18.05;;;;;;;0.43;60.85;97034.34;1754029;80;26715;-80
2021/04/27 02:24:57;;;;;;;46.90;19.30;;;;;;;0.40;60.78;97029.34;1768681;81;25764;-80
2021/04/27 02:27:25;;;;;;;37.30;17.00;;;;;;;0.40;60.69;97038.14;1768789;81;27605;-80
2021/04/27 02:29:54;;;;;;;41.30;15.50;;;;;;;0.42;60.79;97036.17;1764682;79;26107;-80
2021/04/27 02:32:22;;;;;;;35.83;15.25;;;;;;;0.43;60.72;97035.67;1762469;81;25354;-80
2021/04/27 02:34:50;;;;;;;36.10;16.32;;;;;;;0.38;60.88;97026.01;1743910;79;25817;-80
2021/04/27 02:37:18;;;;;;;28.40;14.95;;;;;;;0.31;61.04;97028.47;1734602;79;25816;-80
2021/04/27 02:39:46;;;;;;;36.58;15.55;;;;;;;0.30;60.91;97029.45;1729995;79;27486;-81
2021/04/27 02:42:14;;;;;;;32.35;15.35;;;;;;;0.30;60.98;97028.97;1744657;79;25764;-80
2021/04/27 02:44:41;;;;;;;33.33;15.88;;;;;;;0.28;61.11;97027.45;1768778;81;25734;-81
2021/04/27 02:47:08;;;;;;;34.10;15.93;;;;;;;0.26;61.17;97027.60;1757068;79;26398;-81
2021/04/27 02:49:36;;;;;;;33.40;14.93;;;;;;;0.24;61.27;97026.92;1734157;79;25726;-81
2021/04/27 02:52:03;;;;;;;33.55;15.45;;;;;;;0.20;61.15;97033.55;1757841;79;27642;-80
2021/04/27 02:54:30;;;;;;;34.25;16.20;;;;;;;0.15;61.19;97031.84;1796023;77;26142;-81
2021/04/27 02:56:57;;;;;;;34.63;14.63;;;;;;;0.12;61.25;97028.16;1848900;77;25736;-80
2021/04/27 02:59:25;;;;;;;31.35;13.83;;;;;;;0.06;61.35;97034.11;1827633;77;26520;-80
2021/04/27 03:01:52;;;;;;;27.93;13.35;;;;;;;0.02;61.38;97030.09;1836733;77;25818;-81
2021/04/27 03:04:19;;;;;;;27.25;13.62;;;;;;;-0.01;61.44;97031.26;1844875;77;27682;-81
2021/04/27 03:06:47;;;;;;;30.08;13.83;;;;;;;-0.05;61.50;97028.56;1826745;77;26120;-80
2021/04/27 03:09:14;;;;;;;32.70;13.85;;;;;;;-0.07;61.60;97033.68;1843961;77;25704;-81
2021/04/27 03:11:41;;;;;;;27.85;13.25;;;;;;;-0.10;61.60;97035.30;1851649;77;25749;-80
2021/04/27 03:14:09;;;;;;;31.33;14.03;;;;;;;-0.15;61.71;97038.93;1853920;77;25781;-81
2021/04/27 03:16:36;;;;;;;26.73;12.90;;;;;;;-0.17;61.71;97035.59;1834393;77;27600;-81
2021/04/27 03:19:03;;;;;;;25.72;12.03;;;;;;;-0.20;61.66;97043.85;1846933;77;25723;-81
2021/04/27 03:21:32;;;;;;;27.17;12.33;;;;;;;-0.23;61.64;97041.50;1851741;77;25274;-80
2021/04/27 03:23:59;;;;;;;33.92;12.63;;;;;;;-0.27;61.73;97045.46;1850737;77;25683;-80
2021/04/27 03:26:26;;;;;;;29.25;11.80;;;;;;;-0.34;61.80;97043.06;1828345;77;25726;-81
2021/04/27 03:28:54;;;;;;;27.17;12.43;;;;;;;-0.40;62.00;97044.03;1851671;77;27698;-80
2021/04/27 03:31:21;;;;;;;22.45;11.18;;;;;;;-0.44;62.10;97049.28;1826761;77;25710;-81
2021/04/27 03:33:48;;;;;;;26.25;10.72;;;;;;;-0.47;62.00;97048.25;1831369;77;25742;-81
2021/04/27 03:36:16;;;;;;;23.47;11.30;;;;;;;-0.51;61.90;97051.37;1848219;77;26565;-81
2021/04/27 03:38:44;;;;;;;24.27;10.93;;;;;;;-0.53;61.99;97047.55;1835895;77;26103;-80
2021/04/27 03:41:11;;;;;;;24.87;11.25;;;;;;;-0.54;62.11;97047.20;1818367;77;28063;-80
2021/04/27 03:43:38;;;;;;;24.80;10.95;;;;;;;-0.56;61.98;97045.19;1851450;77;25774;-81
2021/04/27 03:46:06;;;;;;;30.05;11.38;;;;;;;-0.54;61.93;97050.34;1851492;77;25747;-81
2021/04/27 03:48:33;;;;;;;29.40;12.07;;;;;;;-0.56;62.02;97050.98;1851429;77;26336;-80
2021/04/27 03:51:01;;;;;;;33.98;11.57;;;;;;;-0.59;62.09;97052.11;1853659;76;25841;-81
2021/04/27 03:53:28;;;;;;;26.30;11.50;;;;;;;-0.61;62.14;97051.45;1851634;77;27522;-81
2021/04/27 03:55:55;;;;;;;24.75;11.60;;;;;;;-0.63;62.16;97061.38;1832996;77;26460;-80
2021/04/27 03:58:22;;;;;;;28.52;12.37;;;;;;;-0.65;62.13;97055.38;1838361;77;25695;-81
2021/04/27 04:00:50;;;;;;;34.60;13.18;;;;;;;-0.68;62.23;97055.67;1820534;77;25967;-80
2021/04/27 04:03:17;;;;;;;26.55;10.78;;;;;;;-0.68;62.36;97058.81;1824820;77;25796;-81
2021/04/27 04:05:45;;;;;;;24.80;11.18;;;;;;;-0.70;62.30;97056.31;1808734;77;28479;-81
2021/04/27 04:08:12;;;;;;;29.42;11.88;;;;;;;-0.71;62.33;97061.27;1809598;77;25803;-81
2021/04/27 04:10:39;;;;;;;22.48;10.98;;;;;;;-0.71;62.37;97061.27;1851108;77;25357;-81
2021/04/27 04:13:06;;;;;;;24.30;9.85;;;;;;;-0.70;62.54;97054.15;1853463;77;26678;-81
2021/04/27 04:15:34;;;;;;;28.40;12.43;;;;;;;-0.72;62.65;97056.94;1844447;77;25782;-81
2021/04/27 04:18:01;;;;;;;25.65;12.50;;;;;;;-0.72;62.66;97053.49;1834868;77;28531;-81
2021/04/27 04:20:29;;;;;;;34.33;13.28;;;;;;;-0.72;62.64;97058.27;1849805;77;26174;-82
2021/04/27 04:22:56;;;;;;;31.25;13.05;;;;;;;-0.68;62.62;97057.00;1827926;77;25722;-81
2021/04/27 04:25:23;;;;;;;27.05;11.45;;;;;;;-0.65;62.66;97057.20;1818168;77;25895;-81
2021/04/27 04:27:51;;;;;;;38.25;13.18;;;;;;;-0.62;62.61;97059.06;1818090;77;25789;-81
2021/04/27 04:30:23;;;;;;;34.00;16.17;;;;;;;-0.57;62.71;97056.78;1818048;77;27671;-80
2021/04/27 04:32:52;;;;;;;36.77;15.55;;;;;;;-0.53;62.74;97054.66;1818134;77;32673;-81
2021/04/27 04:35:23;;;;;;;30.02;12.78;;;;;;;-0.50;62.71;97064.48;1818156;77;25778;-81
2021/04/27 04:37:50;;;;;;;31.12;12.35;;;;;;;-0.46;62.67;97060.53;1820781;77;25853;-81
2021/04/27 04:40:18;;;;;;;29.52;12.85;;;;;;;-0.46;62.64;97064.51;1851688;77;25747;-81
2021/04/27 04:42:46;;;;;;;27.25;12.53;;;;;;;-0.47;62.86;97065.98;1851484;77;28444;-81
2021/04/27 04:45:16;;;;;;;28.07;14.05;;;;;;;-0.46;62.80;97076.44;1851430;77;25712;-81
2021/04/27 04:47:46;;;;;;;35.52;14.93;;;;;;;-0.43;62.75;97071.33;1851553;77;25791;-81
2021/04/27 04:50:16;;;;;;;55.28;17.73;;;;;;;-0.39;62.72;97074.03;1851758;77;25809;-82
2021/04/27 04:52:43;;;;;;;59.73;19.92;;;;;;;-0.31;62.74;97073.27;1851686;77;25870;-82
2021/04/27 04:55:13;;;;;;;67.42;21.10;;;;;;;-0.28;62.99;97072.48;1812354;77;28380;-81
2021/04/27 04:57:41;;;;;;;52.90;19.92;;;;;;;-0.27;63.22;97078.12;1853520;76;26318;-81
2021/04/27 05:00:13;;;;;;;47.67;18.77;;;;;;;-0.25;62.96;97084.12;1852720;77;26323;-81
2021/04/27 05:02:41;;;;;;;60.85;19.65;;;;;;;-0.19;62.76;97083.98;1853607;77;25903;-81
2021/04/27 05:05:10;;;;;;;33.23;12.25;;;;;;;-0.13;62.89;97084.72;1851732;77;25724;-81
2021/04/27 05:07:42;;;;;;;32.45;13.15;;;;;;;-0.07;62.77;97085.42;1846474;77;27594;-81
2021/04/27 05:10:13;;;;;;;39.50;14.05;;;;;;;-0.01;62.67;97083.50;1811178;77;26192;-82
2021/04/27 05:12:41;;;;;;;34.98;13.38;;;;;;;0.05;62.74;97089.50;1791973;79;25785;-82
2021/04/27 05:15:10;;;;;;;25.80;12.37;;;;;;;0.09;62.76;97084.23;1764007;79;26348;-81
2021/04/27 05:17:37;;;;;;;33.65;13.15;;;;;;;0.14;62.74;97083.26;1763986;79;25818;-82
2021/04/27 05:20:06;;;;;;;28.83;11.97;;;;;;;0.20;62.64;97081.33;1776033;79;27571;-80
2021/04/27 05:22:34;;;;;;;22.80;10.65;;;;;;;0.25;62.59;97084.34;1782645;79;25769;-81
2021/04/27 05:25:02;;;;;;;19.17;9.50;;;;;;;0.27;62.48;97078.88;1795728;79;25775;-81
2021/04/27 05:27:29;;;;;;;28.05;10.35;;;;;;;0.29;62.54;97077.73;1795608;78;25846;-81
2021/04/27 05:29:57;;;;;;;21.95;10.72;;;;;;;0.33;62.43;97073.80;1791333;79;25899;-81
2021/04/27 05:32:24;;;;;;;26.23;10.90;;;;;;;0.45;62.29;97074.86;1787620;79;27560;-82
2021/04/27 05:34:51;;;;;;;20.60;10.58;;;;;;;0.54;62.09;97075.23;1773241;79;25656;-81
2021/04/27 05:37:19;;;;;;;22.30;9.75;;;;;;;0.64;62.10;97084.77;1795627;78;25848;-81
2021/04/27 05:39:46;;;;;;;22.32;9.53;;;;;;;0.70;62.10;97080.66;1772131;79;25804;-81
2021/04/27 05:42:14;;;;;;;22.32;9.18;;;;;;;0.78;62.00;97078.03;1795728;79;25742;-81
2021/04/27 05:44:41;;;;;;;19.73;9.40;;;;;;;0.89;61.73;97080.41;1795773;78;27490;-80
2021/04/27 05:47:08;;;;;;;18.17;8.55;;;;;;;1.00;61.42;97075.30;1801239;79;25706;-81
2021/04/27 05:49:36;;;;;;;15.68;8.78;;;;;;;1.10;61.19;97077.33;1799851;79;25783;-81
2021/04/27 05:52:04;;;;;;;18.32;9.08;;;;;;;1.19;61.16;97082.20;1793630;79;26572;-80
2021/04/27 05:54:32;;;;;;;22.25;9.45;;;;;;;1.25;61.38;97077.56;1784119;78;25739;-81
2021/04/27 05:57:00;;;;;;;24.70;9.63;;;;;;;1.31;61.46;97082.25;1792342;78;28482;-81
2021/04/27 05:59:28;;;;;;;20.27;10.08;;;;;;;1.37;61.41;97078.92;1794394;78;26143;-81
2021/04/27 06:01:56;;;;;;;24.07;10.45;;;;;;;1.44;61.16;97078.62;1784316;79;25717;-81
2021/04/27 06:04:23;;;;;;;28.12;10.43;;;;;;;1.50;60.99;97079.30;1782917;79;26310;-81
2021/04/27 06:06:50;;;;;;;16.10;8.85;;;;;;;1.58;61.16;97081.97;1773414;79;25742;-80
2021/04/27 06:09:18;;;;;;;15.32;8.25;;;;;;;1.68;61.01;97074.69;1763938;79;27490;-80
2021/04/27 06:11:46;;;;;;;17.20;7.85;;;;;;;1.77;60.70;97075.03;1821484;77;26802;-81
2021/04/27 06:14:14;;;;;;;16.42;8.28;;;;;;;1.86;60.42;97074.53;1844705;76;25765;-81
2021/04/27 06:16:41;;;;;;;19.80;9.10;;;;;;;1.96;60.20;97073.86;1838440;77;25792;-81
2021/04/27 06:19:08;;;;;;;20.97;9.10;;;;;;;2.09;60.08;97080.03;1829710;77;25777;-81
2021/04/27 06:21:36;;;;;;;16.30;8.68;;;;;;;2.20;59.97;97078.36;1821531;77;27593;-81
2021/04/27 06:24:04;;;;;;;20.08;8.43;;;;;;;2.34;59.71;97074.19;1821507;77;26492;-81
2021/04/27 06:26:32;;;;;;;16.15;8.95;;;;;;;2.46;59.25;97077.67;1834480;77;25748;-81
2021/04/27 06:28:59;;;;;;;18.65;8.93;;;;;;;2.62;59.17;97075.99;1837026;77;26294;-81
2021/04/27 06:31:26;;;;;;;16.73;8.73;;;;;;;2.75;58.83;97078.47;1839482;77;25706;-80
2021/04/27 06:33:54;;;;;;;17.95;8.35;;;;;;;2.89;57.88;97075.59;1852904;77;27770;-81
2021/04/27 06:36:21;;;;;;;18.67;7.80;;;;;;;3.01;57.67;97078.23;1851063;77;25742;-80
2021/04/27 06:38:49;;;;;;;19.05;9.45;;;;;;;3.12;57.48;97077.84;1855168;77;25791;-80
2021/04/27 06:41:17;;;;;;;22.60;11.28;;;;;;;3.26;57.10;97079.77;1831533;77;26395;-80
2021/04/27 06:43:45;;;;;;;21.48;9.83;;;;;;;3.40;57.13;97081.37;1855104;77;25789;-80
2021/04/27 06:46:12;;;;;;;16.62;8.80;;;;;;;3.52;56.64;97082.14;1855127;77;26676;-80
2021/04/27 06:48:41;;;;;;;16.52;9.15;;;;;;;3.64;56.25;97083.91;1843618;76;25836;-81
2021/04/27 06:51:09;;;;;;;18.73;8.63;;;;;;;3.73;56.25;97070.03;1843706;77;25740;-80
2021/04/27 06:53:37;;;;;;;19.15;9.55;;;;;;;3.86;56.10;97075.12;1855172;77;25775;-80
2021/04/27 06:56:05;;;;;;;18.42;8.60;;;;;;;3.97;56.08;97082.72;1855458;76;26303;-81
2021/04/27 06:58:32;;;;;;;16.40;8.60;;;;;;;4.12;55.79;97076.57;1855187;77;28475;-80
2021/04/27 07:01:00;;;;;;;16.35;8.15;;;;;;;4.25;55.23;97079.47;1855138;77;26305;-80
2021/04/27 07:03:28;;;;;;;13.68;7.05;;;;;;;4.38;55.20;97076.20;1855087;76;25801;-80
2021/04/27 07:05:55;;;;;;;16.85;6.53;;;;;;;4.49;54.61;97071.24;1855131;77;26795;-80
2021/04/27 07:08:23;;;;;;;15.98;7.33;;;;;;;4.58;54.00;97078.20;1855155;77;25770;-79
2021/04/27 07:10:53;;;;;;;12.60;7.22;;;;;;;4.69;53.89;97075.08;1843731;76;27468;-81
2021/04/27 07:13:21;;;;;;;13.88;6.85;;;;;;;4.82;54.05;97078.96;1857746;77;25689;-81
2021/04/27 07:15:49;;;;;;;13.10;6.33;;;;;;;4.93;53.41;97079.84;1830207;77;25733;-81
2021/04/27 07:18:16;;;;;;;11.70;6.78;;;;;;;5.06;53.02;97085.38;1857836;77;25733;-81
2021/04/27 07:20:45;;;;;;;11.88;6.45;;;;;;;5.17;52.76;97079.56;1857808;77;26265;-81
2021/04/27 07:23:12;;;;;;;13.83;6.80;;;;;;;5.30;52.62;97073.56;1857941;77;28532;-81
2021/04/27 07:25:40;;;;;;;18.37;9.98;;;;;;;5.40;52.69;97077.60;1857797;77;25774;-81
2021/04/27 07:28:08;;;;;;;14.78;7.97;;;;;;;5.62;52.69;97077.65;1857891;77;26322;-81
2021/04/27 07:30:36;;;;;;;13.03;6.50;;;;;;;5.84;51.98;97078.00;1857752;77;25739;-81
2021/04/27 07:33:05;;;;;;;13.00;6.70;;;;;;;6.01;51.91;97082.14;1857971;77;25707;-80
2021/04/27 07:35:34;;;;;;;14.50;6.67;;;;;;;6.25;51.25;97076.08;1856816;77;28399;-81
2021/04/27 07:38:03;;;;;;;13.95;6.83;;;;;;;6.50;50.71;97078.68;1835890;77;25766;-81
2021/04/27 07:40:33;;;;;;;15.80;7.97;;;;;;;6.90;50.78;97082.98;1857771;77;26230;-81
2021/04/27 07:43:02;;;;;;;13.22;5.75;;;;;;;7.37;50.30;97079.03;1857747;77;25524;-81
2021/04/27 07:45:33;;;;;;;14.23;5.60;;;;;;;8.02;49.56;97076.80;1857889;77;25993;-81
2021/04/27 07:48:05;;;;;;;12.82;6.30;;;;;;;8.63;48.42;97073.49;1834125;77;27549;-81
2021/04/27 07:50:34;;;;;;;13.15;6.08;;;;;;;9.24;47.39;97076.73;1857992;77;25724;-81
2021/04/27 07:53:03;;;;;;;11.10;5.67;;;;;;;9.71;46.39;97076.89;1857698;77;25730;-82
2021/04/27 07:55:31;;;;;;;12.35;5.70;;;;;;;10.17;46.61;97070.43;1857920;77;26316;-81
2021/04/27 07:57:59;;;;;;;8.65;5.50;;;;;;;10.64;45.85;97072.31;1857747;77;25988;-81
2021/04/27 08:00:26;;;;;;;9.05;5.42;;;;;;;11.13;45.10;97070.94;1857767;77;27486;-82
2021/04/27 08:02:54;;;;;;;10.48;5.50;;;;;;;11.48;44.05;97067.66;1837648;77;25724;-81
2021/04/27 08:05:22;;;;;;;8.10;5.22;;;;;;;11.79;43.20;97068.90;1824115;77;25782;-82
2021/04/27 08:07:50;;;;;;;9.35;5.58;;;;;;;11.98;42.05;97063.45;1824163;77;26493;-82
2021/04/27 08:10:18;;;;;;;7.90;5.60;;;;;;;12.25;42.60;97061.51;1824177;77;25888;-81
2021/04/27 08:12:48;;;;;;;7.83;4.87;;;;;;;12.57;42.34;97064.77;1783209;78;27494;-82
2021/04/27 08:15:21;;;;;;;7.78;5.92;;;;;;;12.77;41.40;97060.94;1766332;79;25787;-82
2021/04/27 08:17:48;;;;;;;;;;;;;;;12.59;40.39;97061.83;1790206;79;25732;-82
2021/04/27 08:20:17;;;;;;;8.78;4.83;;;;;;;12.87;39.16;97063.89;1777921;79;25765;-81
2021/04/27 08:22:47;;;;;;;8.63;4.40;;;;;;;13.17;39.53;97064.63;1795669;78;25791;-82
2021/04/27 08:25:18;;;;;;;8.40;3.95;;;;;;;13.51;38.27;97063.50;1773480;79;28625;-82
2021/04/27 08:27:48;;;;;;;12.05;5.37;;;;;;;13.70;38.09;97073.13;1779127;79;26100;-81
2021/04/27 08:30:21;;;;;;;6.00;4.47;;;;;;;13.91;37.94;97065.69;1777321;79;25876;-82
2021/04/27 08:32:51;;;;;;;10.20;4.92;;;;;;;14.28;37.67;97069.39;1764114;79;25736;-82
2021/04/27 08:35:20;;;;;;;9.83;4.97;;;;;;;14.62;37.40;97060.80;1764035;79;25829;-82
2021/04/27 08:37:48;;;;;;;10.55;4.87;;;;;;;15.01;36.84;97065.81;1766716;79;27757;-82
2021/04/27 08:40:17;;;;;;;6.53;4.62;;;;;;;15.30;36.12;97062.45;1797570;78;25777;-82
2021/04/27 08:42:49;;;;;;;8.38;4.75;;;;;;;15.45;34.64;97059.43;1779811;79;26440;-82
2021/04/27 08:45:18;;;;;;;7.90;4.58;;;;;;;15.42;34.88;97057.20;1783047;78;26379;-82
2021/04/27 08:47:47;;;;;;;6.33;4.20;;;;;;;15.62;33.98;97060.77;1773392;79;25847;-82
2021/04/27 08:50:18;;;;;;;9.28;4.75;;;;;;;15.79;33.75;97058.00;1795478;79;27734;-82
2021/04/27 08:52:46;;;;;;;15.55;5.05;;;;;;;16.10;33.63;97056.46;1795575;78;26109;-82
2021/04/27 08:55:15;;;;;;;9.45;5.35;;;;;;;16.28;32.88;97058.03;1771906;78;25833;-82
2021/04/27 08:57:44;;;;;;;9.20;5.10;;;;;;;16.36;33.05;97060.30;1786773;79;25769;-82
2021/04/27 09:00:17;;;;;;;6.62;4.92;;;;;;;16.62;32.55;97055.42;1769792;79;25750;-82
2021/04/27 09:02:55;;;;;;;7.37;5.20;;;;;;;16.60;31.54;97051.27;1795617;79;27505;-82
2021/04/27 09:05:26;;;;;;;7.22;5.53;;;;;;;16.65;32.72;97045.91;1794603;79;25901;-83
2021/04/27 09:07:56;;;;;;;7.10;5.40;;;;;;;16.85;32.01;97043.35;1796023;79;25693;-82
2021/04/27 09:10:28;;;;;;;8.80;4.70;;;;;;;16.89;31.60;97049.40;1753682;81;25758;-82
2021/04/27 09:13:03;;;;;;;6.67;4.55;;;;;;;16.95;31.12;97043.44;1781800;78;30218;-83
2021/04/27 09:15:39;;;;;;;7.45;5.12;;;;;;;17.01;30.94;97041.58;1786727;78;28833;-81
2021/04/27 09:18:33;;;;;;;6.40;4.65;;;;;;;17.09;31.13;97037.00;1791124;78;26373;-82
2021/04/27 09:21:07;;;;;;;7.25;5.20;;;;;;;17.30;31.60;97044.23;1801055;78;25815;-83
2021/04/27 09:23:40;;;;;;;9.40;5.08;;;;;;;17.52;30.76;97042.18;1788209;78;25692;-82
2021/04/27 09:26:20;;;;;;;7.50;4.83;;;;;;;17.43;30.53;97045.68;1788203;78;25807;-82
2021/04/27 09:28:54;;;;;;;8.50;4.92;;;;;;;17.29;29.60;97041.22;1788160;78;28456;-81
2021/04/27 09:31:32;;;;;;;8.15;4.72;;;;;;;17.25;29.14;97036.03;1794586;78;26353;-82
2021/04/27 09:34:22;;;;;;;8.98;5.08;;;;;;;17.07;29.08;97028.25;1801203;78;25734;-83
2021/04/27 09:36:52;;;;;;;8.60;5.37;;;;;;;16.67;29.01;97035.55;1788160;78;25805;-82
2021/04/27 09:39:37;;;;;;;10.58;4.62;;;;;;;16.62;29.32;97032.26;1807568;78;25797;-82
2021/04/27 09:42:18;;;;;;;10.18;5.50;;;;;;;16.41;28.04;97031.22;1803073;78;28436;-82
2021/04/27 09:44:56;;;;;;;7.87;5.40;;;;;;;16.41;28.82;97029.86;1802051;78;25768;-82
2021/04/27 09:47:32;;;;;;;6.28;4.90;;;;;;;16.45;29.66;97015.16;1794993;78;25746;-83
2021/04/27 09:50:08;;;;;;;9.68;4.97;;;;;;;16.73;29.63;97010.82;1801672;78;26440;-83
2021/04/27 09:52:47;;;;;;;7.40;5.30;;;;;;;17.00;29.11;97013.49;1787141;78;26085;-82
2021/04/27 09:55:21;;;;;;;11.03;5.10;;;;;;;17.32;29.42;97014.79;1788285;78;27626;-83
2021/04/27 09:57:55;;;;;;;7.42;5.28;;;;;;;17.43;28.69;97012.94;1787915;78;25848;-83
2021/04/27 10:00:33;;;;;;;8.65;5.28;;;;;;;17.49;28.95;97009.16;1788146;78;25785;-80
2021/04/27 10:03:06;;;;;;;6.53;4.83;;;;;;;17.68;28.54;97006.82;1809628;78;25745;-82
2021/04/27 10:05:36;;;;;;;7.72;5.03;;;;;;;17.78;28.17;97015.05;1805043;79;25879;-81
2021/04/27 10:08:05;;;;;;;8.45;5.45;;;;;;;17.88;27.66;97006.35;1768904;79;27689;-80
2021/04/27 10:10:35;;;;;;;8.95;6.30;;;;;;;17.88;27.43;97000.07;1768805;79;25675;-81
2021/04/27 10:13:09;;;;;;;8.78;5.83;;;;;;;17.98;27.48;97002.86;1758297;79;25756;-82
2021/04/27 10:15:38;;;;;;;7.10;4.97;;;;;;;17.90;27.25;96989.16;1756562;81;26457;-82
2021/04/27 10:18:09;;;;;;;9.60;4.97;;;;;;;17.99;27.47;96986.76;1740611;79;25769;-81
2021/04/27 10:20:39;;;;;;;8.65;5.22;;;;;;;17.98;27.27;96998.22;1744909;81;27553;-81
2021/04/27 10:23:11;;;;;;;10.13;5.20;;;;;;;18.08;27.21;96991.96;1746448;81;26127;-81
2021/04/27 10:25:41;;;;;;;7.65;5.58;;;;;;;18.09;27.14;96986.78;1737659;79;26412;-81
2021/04/27 10:28:12;;;;;;;8.70;5.45;;;;;;;18.20;26.71;96973.96;1732249;81;25830;-81
2021/04/27 10:30:42;;;;;;;7.15;5.42;;;;;;;18.32;26.89;96972.62;1749154;79;25854;-82
2021/04/27 10:33:19;;;;;;;13.78;5.87;;;;;;;18.55;26.69;96971.81;1750236;81;27720;-82
2021/04/27 10:36:10;;;;;;;6.53;5.22;;;;;;;18.57;26.60;96965.54;1753464;79;26111;-82
2021/04/27 10:38:50;;;;;;;6.97;4.85;;;;;;;18.74;27.19;96963.91;1750215;80;25728;-82
2021/04/27 10:41:22;;;;;;;10.35;5.42;;;;;;;19.01;26.61;96961.16;1762520;79;25855;-82
2021/04/27 10:43:59;;;;;;;9.28;5.22;;;;;;;18.87;25.89;96961.45;1761063;80;26447;-82
2021/04/27 10:46:38;;;;;;;7.00;4.53;;;;;;;18.63;25.66;96950.25;1732229;79;27550;-82
2021/04/27 10:49:15;;;;;;;6.83;5.28;;;;;;;18.58;25.52;96953.00;1753319;79;26141;-82
2021/04/27 10:51:43;;;;;;;7.50;5.17;;;;;;;18.57;26.07;96948.59;1750913;81;25875;-81
2021/04/27 10:54:21;;;;;;;8.23;5.10;;;;;;;18.68;26.17;96946.16;1732065;79;25800;-82
2021/04/27 10:57:03;;;;;;;6.95;5.28;;;;;;;18.74;25.90;96945.59;1751899;81;25824;-82
2021/04/27 10:59:51;;;;;;;8.50;5.40;;;;;;;18.70;25.80;96945.89;1760181;79;26942;-82
2021/04/27 11:02:26;;;;;;;8.08;5.17;;;;;;;18.50;26.06;96951.30;1747438;81;25728;-82
2021/04/27 11:05:04;;;;;;;8.00;5.20;;;;;;;18.51;25.64;96936.55;1732311;79;26135;-81
2021/04/27 11:07:34;;;;;;;11.85;5.50;;;;;;;18.72;26.49;96931.95;1746570;79;25913;-82
2021/04/27 11:10:07;;;;;;;9.05;5.45;;;;;;;19.00;27.08;96937.64;1754571;80;25748;-82
2021/04/27 11:12:41;;;;;;;9.68;4.65;;;;;;;19.28;25.80;96935.39;1752429;80;27715;-82
2021/04/27 11:15:12;;;;;;;6.75;5.20;;;;;;;19.39;25.77;96931.52;1760566;80;26235;-81
2021/04/27 11:17:44;;;;;;;12.43;5.15;;;;;;;19.30;25.75;96930.47;1760755;80;25861;-82
2021/04/27 11:20:12;;;;;;;8.50;4.80;;;;;;;19.35;26.14;96934.54;1760372;80;26588;-81
2021/04/27 11:22:52;;;;;;;11.00;5.28;;;;;;;19.48;25.97;96931.76;1760694;80;25845;-82
2021/04/27 11:25:34;;;;;;;9.15;5.15;;;;;;;19.55;24.83;96928.22;1760813;80;27636;-81
2021/04/27 11:28:03;;;;;;;;;;;;;;;19.05;24.06;96918.49;1767256;80;26189;-82
2021/04/27 11:30:36;;;;;;;7.85;4.58;;;;;;;19.03;23.52;96919.31;1760608;79;25743;-81
2021/04/27 11:33:06;;;;;;;6.25;4.95;;;;;;;18.95;25.30;96918.52;1760668;79;25662;-81
2021/04/27 11:35:43;;;;;;;7.20;5.30;;;;;;;19.25;25.89;96923.63;1760600;80;25752;-82
2021/04/27 11:38:11;;;;;;;7.95;5.33;;;;;;;19.10;25.21;96914.09;1767575;79;27495;-81
2021/04/27 11:40:41;;;;;;;9.98;5.45;;;;;;;18.57;25.02;96914.97;1791935;80;25872;-82